Time;durP1;ratioP1;P1;durP2;ratioP2;P2;SDS_P1;SDS_P2;PMS_P1;PMS_P2;Temp;Humidity;BMP_temperature;BMP_pressure;BME280_temperature;BME280_humidity;BME280_pressure;Samples;Min_cycle;Max_cycle;Signal;HPM_P1;HPM_P2
2021/10/11 00:00:13;;;;;;;3.80;0.60;;;12.40;99.90;;;;;;6187985;22;20193;-88
2021/10/11 00:02:39;;;;;;;6.13;0.87;;;12.50;99.90;;;;;;6239171;23;20488;-89
2021/10/11 00:05:05;;;;;;;0.17;0.17;;;12.60;99.90;;;;;;6212935;23;20219;-89
2021/10/11 00:07:31;;;;;;;2.67;0.87;;;12.70;99.90;;;;;;6238391;22;20207;-89
2021/10/11 00:09:58;;;;;;;0.83;0.80;;;12.80;99.90;;;;;;6213338;23;20268;-89
2021/10/11 00:12:24;;;;;;;0.47;0.47;;;12.70;99.90;;;;;;6237718;22;20185;-88
2021/10/11 00:14:53;;;;;;;0.20;0.20;;;12.80;99.90;;;;;;6189296;23;20158;-89
2021/10/11 00:17:20;;;;;;;0.70;0.33;;;12.70;99.90;;;;;;6187850;23;20196;-89
2021/10/11 00:19:50;;;;;;;1.30;0.87;;;12.70;99.90;;;;;;6187920;23;20850;-89
2021/10/11 00:22:17;;;;;;;0.77;0.53;;;12.60;99.90;;;;;;6238045;22;20193;-90
2021/10/11 00:24:43;;;;;;;0.87;0.53;;;12.50;99.90;;;;;;6188209;23;20289;-89
2021/10/11 00:27:09;;;;;;;0.50;0.50;;;12.40;99.90;;;;;;6213374;23;20165;-89
2021/10/11 00:29:35;;;;;;;0.50;0.50;;;12.30;99.90;;;;;;6187992;23;20263;-88
2021/10/11 00:32:03;;;;;;;0.90;0.73;;;12.30;99.90;;;;;;6187715;23;20209;-88
2021/10/11 00:34:32;;;;;;;0.53;0.53;;;12.30;99.90;;;;;;6213391;23;20271;-88
2021/10/11 00:36:58;;;;;;;0.43;0.43;;;12.20;99.90;;;;;;6238079;22;20255;-89
2021/10/11 00:39:24;;;;;;;0.53;0.40;;;12.10;99.90;;;;;;6237724;22;20165;-89
2021/10/11 00:41:50;;;;;;;1.17;0.60;;;12.10;99.90;;;;;;6213669;23;20213;-88
2021/10/11 00:44:15;;;;;;;6.03;1.47;;;12.10;99.90;;;;;;6187745;23;20201;-89
2021/10/11 00:46:42;;;;;;;2.80;0.70;;;12.00;99.90;;;;;;6163220;23;20212;-89
2021/10/11 00:49:08;;;;;;;3.87;0.50;;;12.00;99.90;;;;;;6187324;23;20649;-88
2021/10/11 00:51:34;;;;;;;1.57;0.93;;;11.90;99.90;;;;;;6188035;22;20197;-89
2021/10/11 00:54:00;;;;;;;4.73;1.43;;;11.90;99.90;;;;;;6213417;23;20161;-89
2021/10/11 00:56:26;;;;;;;0.63;0.30;;;11.90;99.90;;;;;;6187410;23;20646;-89
2021/10/11 00:58:52;;;;;;;1.57;0.83;;;11.90;99.90;;;;;;6212672;23;20231;-89
2021/10/11 01:01:18;;;;;;;1.43;0.90;;;11.90;99.90;;;;;;6187496;23;20525;-90
2021/10/11 01:03:44;;;;;;;2.60;0.47;;;11.90;99.90;;;;;;6237650;22;20191;-90
2021/10/11 01:06:10;;;;;;;10.00;0.93;;;11.90;99.90;;;;;;6186961;22;20250;-89
2021/10/11 01:08:36;;;;;;;7.50;0.80;;;11.90;99.90;;;;;;6213601;23;20154;-89
2021/10/11 01:11:02;;;;;;;0.77;0.40;;;11.90;99.90;;;;;;6212766;23;20193;-87
2021/10/11 01:13:28;;;;;;;5.23;1.80;;;11.90;99.90;;;;;;6187359;23;20791;-89
2021/10/11 01:15:55;;;;;;;6.40;0.47;;;11.90;99.90;;;;;;6212981;23;20638;-88
2021/10/11 01:18:21;;;;;;;8.10;1.13;;;11.90;99.90;;;;;;6212515;22;20245;-89
2021/10/11 01:20:46;;;;;;;0.30;0.30;;;11.80;99.90;;;;;;6188458;23;20589;-87
2021/10/11 01:23:12;;;;;;;0.57;0.27;;;11.70;99.90;;;;;;6187142;23;20200;-89
2021/10/11 01:25:38;;;;;;;1.27;0.63;;;11.70;99.90;;;;;;6187140;23;20212;-88
2021/10/11 01:28:04;;;;;;;1.73;0.63;;;11.70;99.90;;;;;;6212635;23;20201;-88
2021/10/11 01:30:30;;;;;;;0.50;0.50;;;11.60;99.90;;;;;;6237563;22;20768;-88
2021/10/11 01:32:55;;;;;;;0.90;0.27;;;11.60;99.90;;;;;;6188669;23;20185;-88
2021/10/11 01:35:22;;;;;;;1.90;0.47;;;11.50;99.90;;;;;;6187139;23;20252;-89
2021/10/11 01:37:48;;;;;;;3.43;1.13;;;11.50;99.90;;;;;;6237702;22;20197;-88
2021/10/11 01:40:15;;;;;;;2.33;0.77;;;11.50;99.90;;;;;;6186808;23;20193;-88
2021/10/11 01:42:41;;;;;;;7.17;1.17;;;11.60;99.90;;;;;;6212843;23;20760;-88
2021/10/11 01:45:07;;;;;;;2.67;1.23;;;11.70;99.90;;;;;;6213037;23;20161;-88
2021/10/11 01:47:34;;;;;;;0.73;0.47;;;11.70;99.90;;;;;;6187254;23;20285;-88
2021/10/11 01:49:59;;;;;;;0.87;0.77;;;11.80;99.90;;;;;;6237366;22;20204;-89
2021/10/11 01:52:25;;;;;;;1.00;0.60;;;11.80;99.90;;;;;;6186917;23;20282;-88
2021/10/11 01:54:52;;;;;;;1.80;0.73;;;11.90;99.90;;;;;;6187432;23;20228;-88
2021/10/11 01:57:18;;;;;;;2.63;0.50;;;12.00;99.90;;;;;;6212568;22;20583;-89
2021/10/11 01:59:44;;;;;;;0.67;0.67;;;12.10;99.90;;;;;;6238047;23;20161;-88
2021/10/11 02:02:10;;;;;;;3.93;0.43;;;12.40;99.90;;;;;;6213681;23;20197;-89
2021/10/11 02:04:36;;;;;;;0.30;0.20;;;12.60;99.90;;;;;;6214322;23;20355;-88
2021/10/11 02:07:02;;;;;;;0.90;0.83;;;12.70;99.90;;;;;;6189434;23;20278;-89
2021/10/11 02:09:27;;;;;;;0.33;0.23;;;12.80;99.90;;;;;;6213878;22;20253;-88
2021/10/11 02:11:53;;;;;;;4.07;0.50;;;12.90;99.90;;;;;;6190301;23;20193;-89
2021/10/11 02:14:19;;;;;;;3.73;0.57;;;12.90;99.90;;;;;;6214105;23;20201;-89
2021/10/11 02:16:45;;;;;;;2.57;0.30;;;12.90;99.90;;;;;;6214204;23;20272;-88
2021/10/11 02:19:10;;;;;;;2.77;1.13;;;12.80;99.90;;;;;;6214259;23;20193;-88
2021/10/11 02:21:36;;;;;;;7.97;1.07;;;12.80;99.90;;;;;;6189262;23;20193;-89
2021/10/11 02:24:02;;;;;;;0.33;0.27;;;12.80;99.90;;;;;;6190054;23;20162;-88
2021/10/11 02:26:28;;;;;;;2.03;0.57;;;12.60;99.90;;;;;;6238870;22;20204;-88
2021/10/11 02:28:54;;;;;;;0.57;0.43;;;12.70;99.90;;;;;;6189536;23;20201;-88
2021/10/11 02:31:19;;;;;;;2.43;0.80;;;12.70;99.90;;;;;;6189515;23;20195;-88
2021/10/11 02:33:46;;;;;;;1.57;0.70;;;12.60;99.90;;;;;;6238916;22;20542;-88
2021/10/11 02:36:12;;;;;;;1.53;1.00;;;12.70;99.90;;;;;;6188975;22;20161;-88
2021/10/11 02:38:38;;;;;;;2.30;0.70;;;12.70;99.90;;;;;;6215420;23;20471;-88
2021/10/11 02:41:05;;;;;;;5.00;1.27;;;12.70;99.90;;;;;;6188453;23;20335;-88
2021/10/11 02:43:31;;;;;;;0.50;0.50;;;12.60;99.90;;;;;;6188887;23;20198;-88
2021/10/11 02:45:57;;;;;;;0.20;0.20;;;12.60;99.90;;;;;;6213628;23;20604;-88
2021/10/11 02:48:23;;;;;;;1.77;0.40;;;12.50;99.90;;;;;;6239181;22;20169;-87
2021/10/11 02:50:48;;;;;;;2.60;0.40;;;12.40;99.90;;;;;;6239989;23;20598;-89
2021/10/11 02:53:15;;;;;;;1.80;0.67;;;12.40;99.90;;;;;;6188553;23;20658;-87
2021/10/11 02:55:41;;;;;;;1.27;0.90;;;12.30;99.90;;;;;;6188963;23;20198;-88
2021/10/11 02:58:07;;;;;;;1.70;0.97;;;12.20;99.90;;;;;;6188869;23;20193;-87
2021/10/11 03:00:33;;;;;;;1.70;0.80;;;12.20;99.90;;;;;;6213764;22;20189;-88
2021/10/11 03:02:58;;;;;;;4.97;1.10;;;12.20;99.90;;;;;;6189607;23;20161;-89
2021/10/11 03:05:24;;;;;;;4.47;0.70;;;12.20;99.90;;;;;;6188128;23;20197;-90
2021/10/11 03:07:50;;;;;;;0.33;0.33;;;12.20;99.90;;;;;;6213763;23;20208;-88
2021/10/11 03:10:16;;;;;;;3.90;1.17;;;12.20;99.90;;;;;;6188702;23;20645;-89
2021/10/11 03:12:42;;;;;;;0.00;0.00;;;12.40;99.90;;;;;;6238533;22;20256;-88
2021/10/11 03:15:09;;;;;;;3.30;0.27;;;12.40;99.90;;;;;;6214222;23;20168;-88
2021/10/11 03:17:35;;;;;;;1.40;1.13;;;12.50;99.90;;;;;;6213692;23;20201;-87
2021/10/11 03:20:01;;;;;;;1.40;0.70;;;12.50;99.90;;;;;;6213578;23;20232;-89
2021/10/11 03:22:27;;;;;;;0.37;0.30;;;12.40;99.90;;;;;;6213839;23;20193;-89
2021/10/11 03:24:53;;;;;;;0.57;0.53;;;12.40;99.90;;;;;;6213417;23;20524;-89
2021/10/11 03:27:19;;;;;;;1.93;0.33;;;12.50;99.90;;;;;;6188814;22;20591;-89
2021/10/11 03:29:45;;;;;;;0.47;0.47;;;12.50;99.90;;;;;;6214525;23;20165;-89
2021/10/11 03:32:10;;;;;;;4.30;0.70;;;12.50;99.90;;;;;;6188218;23;20201;-90
2021/10/11 03:34:36;;;;;;;7.97;2.10;;;12.50;99.90;;;;;;6213768;23;20280;-89
2021/10/11 03:37:03;;;;;;;0.60;0.20;;;12.50;99.90;;;;;;6213504;23;20185;-88
2021/10/11 03:39:28;;;;;;;2.90;0.50;;;12.50;99.90;;;;;;6213422;22;20168;-88
2021/10/11 03:41:54;;;;;;;8.73;2.37;;;12.50;99.90;;;;;;6214343;23;20694;-89
2021/10/11 03:44:20;;;;;;;11.17;1.60;;;12.50;99.90;;;;;;6187877;23;20193;-88
2021/10/11 03:46:46;;;;;;;6.63;2.17;;;12.40;99.90;;;;;;6188346;23;20189;-88
2021/10/11 03:49:12;;;;;;;1.17;0.47;;;12.40;99.90;;;;;;6213167;23;20189;-88
2021/10/11 03:51:38;;;;;;;0.30;0.27;;;12.40;99.90;;;;;;6213164;23;20242;-88
2021/10/11 03:54:04;;;;;;;3.80;0.77;;;12.30;99.90;;;;;;6213842;23;20598;-88
2021/10/11 03:56:30;;;;;;;1.23;0.70;;;12.30;99.90;;;;;;6212954;23;20189;-89
2021/10/11 03:58:55;;;;;;;8.23;0.77;;;12.20;99.90;;;;;;6238509;22;20189;-88
2021/10/11 04:01:21;;;;;;;8.13;1.20;;;12.20;99.90;;;;;;6187877;23;20657;-88
2021/10/11 04:03:47;;;;;;;3.10;1.00;;;12.20;99.90;;;;;;6188189;23;20189;-88
2021/10/11 04:06:13;;;;;;;0.90;0.20;;;12.10;99.90;;;;;;6213389;22;20675;-88
2021/10/11 04:08:40;;;;;;;2.63;1.10;;;12.10;99.90;;;;;;6188764;23;20161;-88
2021/10/11 04:11:21;;;;;;;2.57;0.63;;;12.10;99.90;;;;;;6188903;23;20193;-88
2021/10/11 04:13:47;;;;;;;0.93;0.40;;;12.10;99.90;;;;;;6238332;22;20212;-88
2021/10/11 04:16:13;;;;;;;1.60;0.20;;;12.10;99.90;;;;;;6238019;22;20670;-88
2021/10/11 04:18:40;;;;;;;0.67;0.67;;;12.10;99.90;;;;;;6212988;23;20660;-89
2021/10/11 04:21:06;;;;;;;0.43;0.33;;;12.10;99.90;;;;;;6239038;23;20169;-89
2021/10/11 04:23:32;;;;;;;0.13;0.13;;;12.00;99.90;;;;;;6187459;23;20252;-89
2021/10/11 04:25:59;;;;;;;3.07;0.30;;;12.00;99.90;;;;;;6187742;23;20224;-89
2021/10/11 04:28:25;;;;;;;0.53;0.53;;;12.00;99.90;;;;;;6187859;23;20197;-88
2021/10/11 04:30:51;;;;;;;1.30;0.57;;;12.10;99.90;;;;;;6188101;23;20185;-88
2021/10/11 04:33:18;;;;;;;2.20;1.00;;;12.10;99.90;;;;;;6212968;22;20268;-89
2021/10/11 04:35:45;;;;;;;0.70;0.37;;;12.10;99.90;;;;;;6213591;23;20168;-89
2021/10/11 04:38:11;;;;;;;1.50;0.87;;;12.00;99.90;;;;;;6212715;23;20228;-88
2021/10/11 04:40:37;;;;;;;8.07;0.67;;;12.10;99.90;;;;;;6239169;22;20534;-88
2021/10/11 04:43:03;;;;;;;4.00;0.70;;;12.10;99.90;;;;;;6187437;23;20255;-89
2021/10/11 04:45:29;;;;;;;10.83;0.70;;;12.10;99.90;;;;;;6212295;22;20184;-88
2021/10/11 04:48:01;;;;;;;1.37;0.93;;;12.10;99.90;;;;;;6188849;23;20201;-88
2021/10/11 04:50:29;;;;;;;1.07;0.77;;;12.00;99.90;;;;;;6237269;22;20225;-89
2021/10/11 04:52:55;;;;;;;8.30;0.30;;;12.00;99.90;;;;;;6188276;23;20207;-89
2021/10/11 04:55:21;;;;;;;0.77;0.37;;;12.00;99.90;;;;;;6237880;22;20630;-89
2021/10/11 04:57:47;;;;;;;3.67;0.77;;;11.90;99.90;;;;;;6209306;23;20766;-89
2021/10/11 05:00:13;;;;;;;0.27;0.27;;;11.90;99.90;;;;;;6212195;22;20165;-89
2021/10/11 05:02:40;;;;;;;0.67;0.67;;;11.80;99.90;;;;;;6238725;23;20614;-89
2021/10/11 05:05:06;;;;;;;0.50;0.30;;;11.80;99.90;;;;;;6187627;23;20200;-89
2021/10/11 05:07:32;;;;;;;13.23;0.87;;;11.70;99.90;;;;;;6187922;23;20704;-89
2021/10/11 05:09:58;;;;;;;1.30;0.50;;;11.70;99.90;;;;;;6210929;23;20193;-88
2021/10/11 05:12:24;;;;;;;2.67;0.13;;;11.70;99.90;;;;;;6187347;22;20278;-89
2021/10/11 05:14:49;;;;;;;5.50;0.50;;;11.70;99.90;;;;;;6213922;23;20232;-89
2021/10/11 05:17:15;;;;;;;4.20;0.50;;;11.70;99.90;;;;;;6186952;23;20618;-89
2021/10/11 05:19:41;;;;;;;2.43;1.00;;;11.70;99.90;;;;;;6212700;23;20193;-89
2021/10/11 05:22:07;;;;;;;4.40;0.50;;;11.70;99.90;;;;;;6187609;23;20189;-89
2021/10/11 05:24:33;;;;;;;1.17;0.30;;;11.70;99.90;;;;;;6237473;22;20193;-89
2021/10/11 05:26:59;;;;;;;2.13;1.27;;;11.70;99.90;;;;;;6187500;23;20158;-90
2021/10/11 05:29:25;;;;;;;5.33;0.53;;;11.70;99.90;;;;;;6211682;23;20224;-90
2021/10/11 05:31:51;;;;;;;4.43;0.43;;;11.70;99.90;;;;;;6237700;22;20846;-89
2021/10/11 05:34:17;;;;;;;0.27;0.27;;;11.70;99.90;;;;;;6212851;23;20189;-89
2021/10/11 05:36:44;;;;;;;2.87;0.83;;;11.80;99.90;;;;;;6240447;22;20242;-90
2021/10/11 05:39:10;;;;;;;3.77;0.60;;;11.80;99.90;;;;;;6241938;23;20153;-89
2021/10/11 05:41:36;;;;;;;1.43;0.57;;;11.80;99.90;;;;;;6215528;23;20205;-89
2021/10/11 05:44:02;;;;;;;10.00;0.93;;;11.80;99.90;;;;;;6215350;23;20201;-89
2021/10/11 05:46:28;;;;;;;1.10;0.63;;;11.80;99.90;;;;;;6215335;23;20197;-88
2021/10/11 05:48:54;;;;;;;9.40;1.13;;;11.90;99.90;;;;;;6190688;23;20276;-88
2021/10/11 05:51:19;;;;;;;3.57;1.70;;;11.90;99.90;;;;;;6190744;22;20193;-89
2021/10/11 05:53:45;;;;;;;0.87;0.33;;;12.00;99.90;;;;;;6191515;23;20185;-89
2021/10/11 05:56:11;;;;;;;0.93;0.57;;;12.10;99.90;;;;;;6216254;23;20189;-88
2021/10/11 05:58:37;;;;;;;14.63;0.93;;;12.20;99.90;;;;;;6207148;22;20192;-89
2021/10/11 06:01:02;;;;;;;1.53;0.73;;;12.30;99.90;;;;;;6190661;23;20242;-89
2021/10/11 06:03:28;;;;;;;8.83;1.00;;;12.30;99.90;;;;;;6216154;22;20168;-88
2021/10/11 06:05:54;;;;;;;6.23;1.30;;;12.40;99.90;;;;;;6191492;23;20582;-89
2021/10/11 06:08:20;;;;;;;1.70;0.50;;;12.40;99.90;;;;;;6215020;23;20197;-89
2021/10/11 06:10:46;;;;;;;3.93;0.53;;;12.40;99.90;;;;;;6190901;23;20708;-88
2021/10/11 06:13:12;;;;;;;1.60;0.63;;;12.50;99.90;;;;;;6215288;23;20201;-89
2021/10/11 06:15:38;;;;;;;4.13;0.50;;;12.50;99.90;;;;;;6215171;23;20196;-89
2021/10/11 06:18:04;;;;;;;9.00;0.63;;;12.50;99.90;;;;;;6241329;23;20622;-88
2021/10/11 06:20:30;;;;;;;5.73;0.93;;;12.60;99.90;;;;;;6214623;23;20200;-90
2021/10/11 06:22:55;;;;;;;0.70;0.70;;;12.60;99.90;;;;;;6190031;23;20530;-89
2021/10/11 06:25:22;;;;;;;0.83;0.50;;;12.60;99.90;;;;;;6189839;23;20288;-89
2021/10/11 06:27:48;;;;;;;0.97;0.33;;;12.70;99.90;;;;;;6215428;23;20531;-91
2021/10/11 06:30:14;;;;;;;3.40;1.07;;;12.70;99.90;;;;;;6190315;22;20165;-90
2021/10/11 06:32:40;;;;;;;2.47;1.20;;;12.70;99.90;;;;;;6241086;23;20181;-89
2021/10/11 06:35:07;;;;;;;1.07;0.20;;;12.80;99.90;;;;;;6240398;22;20706;-88
2021/10/11 06:37:33;;;;;;;2.07;0.90;;;12.80;99.90;;;;;;6214825;23;20197;-87
2021/10/11 06:39:58;;;;;;;2.77;0.93;;;12.80;99.90;;;;;;6190409;23;20205;-88
2021/10/11 06:42:25;;;;;;;3.07;0.47;;;12.80;99.90;;;;;;6189257;22;20212;-88
2021/10/11 06:44:51;;;;;;;6.07;0.80;;;12.70;99.90;;;;;;6191222;23;20169;-89
2021/10/11 06:47:17;;;;;;;0.40;0.40;;;12.80;99.90;;;;;;6213386;23;20258;-88
2021/10/11 06:49:45;;;;;;;8.50;0.70;;;12.80;99.90;;;;;;6213890;23;20718;-88
2021/10/11 06:52:15;;;;;;;0.87;0.60;;;12.90;99.90;;;;;;6214231;23;20673;-91
2021/10/11 06:54:40;;;;;;;5.33;0.53;;;12.90;99.90;;;;;;6238840;22;20228;-88
2021/10/11 06:57:07;;;;;;;14.57;0.90;;;13.00;99.90;;;;;;6189369;23;20161;-88
2021/10/11 06:59:34;;;;;;;0.50;0.47;;;13.00;99.90;;;;;;6237924;22;20197;-89
2021/10/11 07:02:00;;;;;;;4.97;0.80;;;13.00;99.90;;;;;;6188928;23;20201;-88
2021/10/11 07:04:26;;;;;;;2.63;0.47;;;13.00;99.90;;;;;;6238818;22;20205;-89
2021/10/11 07:06:52;;;;;;;5.13;0.87;;;13.10;99.90;;;;;;6188629;23;20255;-88
2021/10/11 07:09:18;;;;;;;0.23;0.23;;;13.10;99.90;;;;;;6188235;22;20157;-88
2021/10/11 07:11:44;;;;;;;0.13;0.13;;;13.10;99.90;;;;;;6188861;23;20185;-88
2021/10/11 07:14:09;;;;;;;3.37;0.93;;;13.10;99.90;;;;;;6213705;23;20205;-89
2021/10/11 07:16:35;;;;;;;1.63;0.27;;;13.10;99.90;;;;;;6188235;23;20243;-88
2021/10/11 07:19:01;;;;;;;0.57;0.50;;;13.10;99.90;;;;;;6213552;23;20193;-89
2021/10/11 07:21:26;;;;;;;4.03;0.70;;;13.10;99.90;;;;;;6188066;22;20224;-88
2021/10/11 07:23:52;;;;;;;1.00;0.30;;;13.20;99.90;;;;;;6189183;23;20161;-87
2021/10/11 07:26:18;;;;;;;1.00;0.27;;;13.20;99.90;;;;;;6188538;23;20530;-88
2021/10/11 07:28:44;;;;;;;2.03;0.47;;;13.30;99.90;;;;;;6237972;22;20276;-87
2021/10/11 07:31:10;;;;;;;0.20;0.20;;;13.30;99.90;;;;;;6188684;23;20201;-88
2021/10/11 07:33:35;;;;;;;1.37;0.47;;;13.40;99.90;;;;;;6188118;23;20725;-89
2021/10/11 07:36:01;;;;;;;0.20;0.20;;;13.40;99.90;;;;;;6189564;23;20189;-88
2021/10/11 07:38:28;;;;;;;3.70;1.70;;;13.50;99.90;;;;;;6213048;23;20239;-89
2021/10/11 07:40:54;;;;;;;3.20;0.43;;;13.50;99.90;;;;;;6188441;23;20231;-88
2021/10/11 07:43:20;;;;;;;1.80;1.43;;;13.50;99.90;;;;;;6238225;22;20209;-91
2021/10/11 07:45:45;;;;;;;1.07;0.30;;;13.50;99.90;;;;;;6238441;22;20192;-89
2021/10/11 07:48:11;;;;;;;0.87;0.60;;;13.50;99.90;;;;;;6188679;22;20162;-89
2021/10/11 07:50:37;;;;;;;0.30;0.30;;;13.50;99.90;;;;;;6213861;23;20245;-89
2021/10/11 07:53:03;;;;;;;13.53;0.63;;;13.60;99.90;;;;;;6213200;23;20211;-90
2021/10/11 07:55:29;;;;;;;13.00;1.00;;;13.50;99.90;;;;;;6213258;23;20212;-88
2021/10/11 07:57:55;;;;;;;1.20;0.43;;;13.60;99.90;;;;;;6212328;23;20524;-88
2021/10/11 08:00:21;;;;;;;0.47;0.40;;;13.60;99.90;;;;;;6188244;22;20252;-86
2021/10/11 08:02:47;;;;;;;3.63;0.90;;;13.70;99.90;;;;;;6214002;23;20724;-88
2021/10/11 08:05:14;;;;;;;0.87;0.60;;;13.70;99.90;;;;;;6237895;22;20620;-88
2021/10/11 08:07:43;;;;;;;0.83;0.20;;;13.80;99.90;;;;;;6213130;23;20212;-89
2021/10/11 08:10:10;;;;;;;2.23;0.30;;;13.80;99.90;;;;;;6188526;23;20196;-89
2021/10/11 08:12:36;;;;;;;4.70;0.73;;;13.90;99.90;;;;;;6187907;23;20201;-89
2021/10/11 08:15:03;;;;;;;1.97;0.70;;;14.00;99.90;;;;;;6240062;22;20161;-88
2021/10/11 08:17:29;;;;;;;0.20;0.20;;;14.00;99.90;;;;;;6187685;23;20393;-89
2021/10/11 08:19:55;;;;;;;5.43;1.20;;;14.10;99.90;;;;;;6187469;23;20252;-88
2021/10/11 08:22:21;;;;;;;0.77;0.10;;;14.10;99.90;;;;;;6212934;23;20296;-87
2021/10/11 08:24:48;;;;;;;0.30;0.30;;;14.20;99.90;;;;;;6212790;23;20204;-88
2021/10/11 08:27:17;;;;;;;0.47;0.40;;;14.20;99.90;;;;;;6238341;22;20571;-92
2021/10/11 08:29:52;;;;;;;7.00;0.73;;;14.30;99.90;;;;;;6213487;23;20938;-90
2021/10/11 08:32:22;;;;;;;1.03;0.20;;;14.50;99.90;;;;;;6237629;22;20201;-89
2021/10/11 08:34:49;;;;;;;0.67;0.40;;;14.60;99.90;;;;;;6238135;22;20697;-89
2021/10/11 08:37:15;;;;;;;4.87;0.83;;;14.80;99.90;;;;;;6187808;23;20197;-90
2021/10/11 08:39:41;;;;;;;0.43;0.43;;;14.70;99.90;;;;;;6187475;23;20195;-89
2021/10/11 08:42:09;;;;;;;3.53;1.00;;;14.70;99.90;;;;;;6212866;23;20502;-89
2021/10/11 08:44:35;;;;;;;1.77;0.33;;;14.70;99.90;;;;;;6213223;23;20771;-89
2021/10/11 08:47:02;;;;;;;0.63;0.47;;;14.60;99.90;;;;;;6237795;22;20197;-88
2021/10/11 08:49:29;;;;;;;0.80;0.80;;;14.70;99.90;;;;;;6212566;23;20500;-89
2021/10/11 08:51:55;;;;;;;4.13;0.97;;;14.80;99.90;;;;;;6212691;23;20282;-87
2021/10/11 08:54:20;;;;;;;1.20;1.00;;;15.00;99.90;;;;;;6211948;22;20157;-88
2021/10/11 08:56:46;;;;;;;2.27;0.63;;;15.20;99.90;;;;;;6188382;23;20153;-87
2021/10/11 08:59:12;;;;;;;0.60;0.60;;;15.70;99.90;;;;;;6212381;23;20197;-88
2021/10/11 09:01:39;;;;;;;0.33;0.27;;;15.40;99.90;;;;;;6187230;23;20235;-88
2021/10/11 09:04:18;;;;;;;0.77;0.30;;;14.90;99.90;;;;;;6237266;22;20193;-90
2021/10/11 09:07:09;;;;;;;0.67;0.40;;;14.00;99.90;;;;;;6238643;22;21096;-90
2021/10/11 09:09:46;;;;;;;7.03;2.03;;;13.50;99.90;;;;;;6238043;22;20201;-89
2021/10/11 09:12:17;;;;;;;0.43;0.10;;;13.50;99.90;;;;;;6211850;22;20220;-89
2021/10/11 09:14:46;;;;;;;2.70;0.70;;;13.60;99.90;;;;;;6212891;23;20572;-89
2021/10/11 09:17:26;;;;;;;0.40;0.40;;;13.70;99.90;;;;;;6237832;22;20192;-88
2021/10/11 09:19:58;;;;;;;4.70;0.30;;;13.80;99.90;;;;;;6237602;22;20276;-88
2021/10/11 09:22:35;;;;;;;1.10;0.30;;;13.90;99.90;;;;;;6189574;23;20200;-89
2021/10/11 09:25:02;;;;;;;0.80;0.80;;;13.90;99.90;;;;;;6211839;23;20231;-89
2021/10/11 09:27:28;;;;;;;0.43;0.43;;;14.00;99.90;;;;;;6187735;22;20231;-90
2021/10/11 09:29:53;;;;;;;0.90;0.67;;;14.20;99.90;;;;;;6213080;23;20157;-89
2021/10/11 09:32:28;;;;;;;1.23;0.37;;;14.90;99.90;;;;;;6213394;23;20218;-90
2021/10/11 09:34:54;;;;;;;1.60;0.50;;;15.10;99.90;;;;;;6238149;22;20826;-89
2021/10/11 09:37:20;;;;;;;2.80;0.47;;;15.20;99.90;;;;;;6187642;23;20197;-89
2021/10/11 09:39:45;;;;;;;2.20;0.77;;;14.90;99.90;;;;;;6211840;23;20224;-90
2021/10/11 09:42:16;;;;;;;6.07;0.47;;;14.90;99.90;;;;;;6187636;22;20600;-89
2021/10/11 09:44:52;;;;;;;1.83;0.30;;;15.00;99.90;;;;;;6212665;23;20157;-89
2021/10/11 09:49:59;;;;;;;3.53;0.33;;;15.20;99.90;;;;;;6237469;22;20220;-91
2021/10/11 09:52:26;;;;;;;0.40;0.40;;;15.10;99.90;;;;;;6237009;22;20201;-90
2021/10/11 09:54:53;;;;;;;1.03;0.20;;;15.10;99.90;;;;;;6211406;23;20200;-89
2021/10/11 09:57:19;;;;;;;2.20;0.77;;;15.00;99.90;;;;;;6212351;22;20594;-90
2021/10/11 09:59:46;;;;;;;2.43;0.37;;;15.00;99.90;;;;;;6212170;23;20644;-90
2021/10/11 10:02:12;;;;;;;0.50;0.40;;;15.20;99.90;;;;;;6186459;23;20258;-89
2021/10/11 10:04:41;;;;;;;1.60;1.50;;;15.30;99.90;;;;;;6211375;23;20197;-91
2021/10/11 10:07:08;;;;;;;2.83;0.73;;;15.30;99.90;;;;;;6186396;23;20527;-91
2021/10/11 10:09:41;;;;;;;3.23;0.37;;;15.20;99.90;;;;;;6186787;22;20247;-92
2021/10/11 10:12:08;;;;;;;0.20;0.20;;;15.20;99.90;;;;;;6238040;23;20153;-91
2021/10/11 10:14:35;;;;;;;2.73;0.60;;;15.10;99.90;;;;;;6186218;23;20193;-92
2021/10/11 10:17:01;;;;;;;0.73;0.40;;;14.90;99.90;;;;;;6187617;23;20198;-91
2021/10/11 10:19:34;;;;;;;1.20;0.10;;;14.80;99.90;;;;;;6211677;23;20231;-89
2021/10/11 10:22:09;;;;;;;3.20;0.40;;;14.80;99.90;;;;;;6212981;23;20572;-89
2021/10/11 10:24:35;;;;;;;0.00;0.00;;;14.90;99.90;;;;;;6238471;22;20216;-89
2021/10/11 10:27:21;;;;;;;0.17;0.17;;;14.80;99.90;;;;;;6213293;23;20188;-87
2021/10/11 10:29:49;;;;;;;0.50;0.33;;;14.90;99.90;;;;;;6213687;23;20176;-88
2021/10/11 10:32:19;;;;;;;0.63;0.60;;;14.90;99.90;;;;;;6213530;23;20235;-88
2021/10/11 10:35:05;;;;;;;1.13;0.97;;;15.10;99.90;;;;;;6188909;23;20201;-88
2021/10/11 10:37:37;;;;;;;1.00;0.30;;;15.20;99.90;;;;;;6238328;22;20204;-88
2021/10/11 10:40:11;;;;;;;0.30;0.30;;;15.10;99.90;;;;;;6213286;23;20193;-88
2021/10/11 10:42:37;;;;;;;0.57;0.30;;;15.20;99.90;;;;;;6236995;22;20209;-90
2021/10/11 10:45:13;;;;;;;2.60;0.50;;;15.50;99.90;;;;;;6188872;23;20469;-88
2021/10/11 10:47:40;;;;;;;2.67;0.90;;;15.70;99.90;;;;;;6214743;23;20173;-88
2021/10/11 10:50:22;;;;;;;0.60;0.27;;;16.00;99.90;;;;;;6213183;23;20201;-90
2021/10/11 10:52:54;;;;;;;2.57;0.87;;;15.60;99.90;;;;;;6238162;22;20666;-87
2021/10/11 10:55:21;;;;;;;4.60;0.77;;;15.50;99.90;;;;;;6239001;22;20221;-89
2021/10/11 10:57:47;;;;;;;0.40;0.20;;;15.70;99.90;;;;;;6212314;23;20192;-89
2021/10/11 11:00:18;;;;;;;1.33;0.37;;;16.00;99.90;;;;;;6237616;22;20172;-88
2021/10/11 11:02:49;;;;;;;2.20;0.40;;;16.00;99.90;;;;;;6237815;23;20145;-90
2021/10/11 11:05:19;;;;;;;1.03;0.47;;;15.80;99.90;;;;;;6237646;22;20640;-90
2021/10/11 11:07:49;;;;;;;0.20;0.20;;;15.30;99.90;;;;;;6212939;23;20623;-89
2021/10/11 11:10:22;;;;;;;0.30;0.30;;;15.00;99.90;;;;;;6238883;22;20251;-89
2021/10/11 11:12:58;;;;;;;0.20;0.20;;;15.00;99.90;;;;;;6237356;22;20205;-89
2021/10/11 11:15:28;;;;;;;0.17;0.17;;;15.00;99.90;;;;;;6237322;22;20161;-90
2021/10/11 11:18:00;;;;;;;0.20;0.20;;;15.60;99.90;;;;;;6237892;23;20228;-90
2021/10/11 11:20:33;;;;;;;0.90;0.40;;;16.10;99.90;;;;;;6237223;22;20212;-90
2021/10/11 11:23:11;;;;;;;1.67;0.43;;;16.40;99.90;;;;;;6237169;22;20206;-90
2021/10/11 11:25:40;;;;;;;1.93;0.67;;;16.50;99.90;;;;;;6236867;22;20247;-90
2021/10/11 11:28:09;;;;;;;0.50;0.33;;;16.10;99.90;;;;;;6213630;23;20189;-90
2021/10/11 11:30:35;;;;;;;0.20;0.20;;;16.10;99.90;;;;;;6238406;22;20189;-90
2021/10/11 11:33:09;;;;;;;0.97;0.50;;;16.40;99.90;;;;;;6213329;23;20192;-91
2021/10/11 11:35:44;;;;;;;2.43;0.67;;;16.30;99.90;;;;;;6238096;22;20203;-89
2021/10/11 11:38:11;;;;;;;0.40;0.20;;;15.90;99.90;;;;;;6238510;22;20208;-89
2021/10/11 11:40:43;;;;;;;0.20;0.20;;;16.30;99.90;;;;;;6212640;23;20193;-91
2021/10/11 11:43:11;;;;;;;1.17;0.50;;;16.50;99.90;;;;;;6238287;22;20669;-90
2021/10/11 11:45:55;;;;;;;0.37;0.20;;;16.40;99.90;;;;;;6236985;22;20197;-88
2021/10/11 11:48:25;;;;;;;0.77;0.40;;;16.00;99.90;;;;;;6237945;22;20224;-88
2021/10/11 11:51:00;;;;;;;4.03;0.20;;;16.40;99.90;;;;;;6238795;23;20146;-89
2021/10/11 11:53:27;;;;;;;0.13;0.13;;;16.20;99.90;;;;;;6237690;22;20204;-88
2021/10/11 11:55:55;;;;;;;0.73;0.17;;;16.30;99.90;;;;;;6212640;23;20197;-90
2021/10/11 11:58:28;;;;;;;1.47;0.40;;;15.90;99.90;;;;;;6237790;22;20189;-90
2021/10/11 12:01:03;;;;;;;0.40;0.27;;;15.90;99.90;;;;;;6237809;22;20197;-89
2021/10/11 12:03:35;;;;;;;3.50;0.90;;;16.00;99.90;;;;;;6238428;22;20169;-88
2021/10/11 12:06:01;;;;;;;0.80;0.13;;;15.50;99.90;;;;;;6214981;23;20142;-89
2021/10/11 12:08:28;;;;;;;7.23;0.77;;;15.50;99.90;;;;;;6237842;22;20208;-89
2021/10/11 12:11:01;;;;;;;1.60;0.30;;;15.80;99.90;;;;;;6212291;23;20201;-89
2021/10/11 12:13:29;;;;;;;0.73;0.70;;;15.80;99.90;;;;;;6237678;22;20266;-90
2021/10/11 12:16:00;;;;;;;1.70;0.20;;;16.00;99.90;;;;;;6213071;23;20515;-89
2021/10/11 12:18:34;;;;;;;1.80;0.43;;;15.90;99.90;;;;;;6238438;22;20244;-89
2021/10/11 12:21:00;;;;;;;0.73;0.33;;;15.70;99.90;;;;;;6239210;23;20221;-88
2021/10/11 12:23:39;;;;;;;3.60;0.70;;;15.70;99.90;;;;;;6187911;23;20708;-89
2021/10/11 12:26:06;;;;;;;0.50;0.37;;;15.80;99.90;;;;;;6237947;22;20681;-88
2021/10/11 12:28:32;;;;;;;0.10;0.10;;;15.50;99.90;;;;;;6187009;23;20205;-89
2021/10/11 12:31:04;;;;;;;0.20;0.20;;;15.40;99.90;;;;;;6187131;23;20193;-88
2021/10/11 12:33:40;;;;;;;0.10;0.10;;;15.20;99.90;;;;;;6237307;22;20208;-89
2021/10/11 12:36:07;;;;;;;0.20;0.20;;;15.10;99.90;;;;;;6238522;23;20187;-89
2021/10/11 12:38:39;;;;;;;1.40;0.60;;;15.00;99.90;;;;;;6211746;23;20292;-89
2021/10/11 12:41:14;;;;;;;0.33;0.10;;;14.90;99.90;;;;;;6237456;22;20211;-89
2021/10/11 12:43:55;;;;;;;6.30;0.60;;;15.00;99.90;;;;;;6236917;22;20548;-90
2021/10/11 12:46:21;;;;;;;0.50;0.40;;;15.00;99.90;;;;;;6237268;22;20204;-89
2021/10/11 12:48:56;;;;;;;0.17;0.17;;;14.90;99.90;;;;;;6211229;23;20254;-87